sensor_id;sensor_type;location;lat;lon;timestamp;pressure;altitude;pressure_sealevel;temperature;humidity
24788;BME280;12883;52.662;5.196;2024-02-15T00:00:44;99956.28;;;11.79;100.00
24788;BME280;12883;52.662;5.196;2024-02-15T00:03:10;99941.81;;;11.64;100.00
24788;BME280;12883;52.662;5.196;2024-02-15T00:05:38;99964.47;;;11.78;100.00
24788;BME280;12883;52.662;5.196;2024-02-15T00:08:05;99896.66;;;11.46;100.00
24788;BME280;12883;52.662;5.196;2024-02-15T00:10:31;99955.00;;;11.82;100.00
24788;BME280;12883;52.662;5.196;2024-02-15T00:12:57;99969.34;;;11.81;100.00
24788;BME280;12883;52.662;5.196;2024-02-15T00:15:23;99969.13;;;11.82;100.00
24788;BME280;12883;52.662;5.196;2024-02-15T00:17:48;99957.91;;;11.80;100.00
24788;BME280;12883;52.662;5.196;2024-02-15T00:20:13;99968.19;;;11.77;100.00
24788;BME280;12883;52.662;5.196;2024-02-15T00:22:39;99975.47;;;11.81;100.00
24788;BME280;12883;52.662;5.196;2024-02-15T00:25:07;99947.34;;;11.74;100.00
24788;BME280;12883;52.662;5.196;2024-02-15T00:27:34;99975.91;;;11.78;100.00
24788;BME280;12883;52.662;5.196;2024-02-15T00:30:00;99961.59;;;11.79;100.00
24788;BME280;12883;52.662;5.196;2024-02-15T00:32:26;99964.00;;;11.81;100.00
24788;BME280;12883;52.662;5.196;2024-02-15T00:34:51;99963.22;;;11.80;100.00
24788;BME280;12883;52.662;5.196;2024-02-15T00:37:17;99919.28;;;11.66;100.00
24788;BME280;12883;52.662;5.196;2024-02-15T00:39:42;99947.28;;;11.80;100.00
24788;BME280;12883;52.662;5.196;2024-02-15T00:42:08;99939.88;;;11.82;100.00
24788;BME280;12883;52.662;5.196;2024-02-15T00:44:34;99934.78;;;11.81;100.00
24788;BME280;12883;52.662;5.196;2024-02-15T00:46:59;99928.41;;;11.82;100.00
24788;BME280;12883;52.662;5.196;2024-02-15T00:49:25;99927.97;;;11.85;100.00
24788;BME280;12883;52.662;5.196;2024-02-15T00:51:53;99893.50;;;11.67;100.00
24788;BME280;12883;52.662;5.196;2024-02-15T00:54:18;99921.03;;;11.84;100.00
24788;BME280;12883;52.662;5.196;2024-02-15T00:56:44;99923.94;;;11.82;100.00
24788;BME280;12883;52.662;5.196;2024-02-15T00:59:09;99899.88;;;11.89;100.00
24788;BME280;12883;52.662;5.196;2024-02-15T01:01:35;99903.94;;;11.91;100.00
24788;BME280;12883;52.662;5.196;2024-02-15T01:04:03;99909.03;;;11.93;100.00
24788;BME280;12883;52.662;5.196;2024-02-15T01:06:29;99901.75;;;11.88;100.00
24788;BME280;12883;52.662;5.196;2024-02-15T01:08:54;99897.22;;;11.89;100.00
24788;BME280;12883;52.662;5.196;2024-02-15T01:11:19;99895.72;;;11.93;100.00
24788;BME280;12883;52.662;5.196;2024-02-15T01:13:46;99895.16;;;11.91;100.00
24788;BME280;12883;52.662;5.196;2024-02-15T01:16:11;99876.91;;;11.94;100.00
24788;BME280;12883;52.662;5.196;2024-02-15T01:18:36;99886.16;;;11.92;100.00
24788;BME280;12883;52.662;5.196;2024-02-15T01:21:03;99879.78;;;11.93;100.00
24788;BME280;12883;52.662;5.196;2024-02-15T01:23:28;99855.72;;;11.88;100.00
24788;BME280;12883;52.662;5.196;2024-02-15T01:25:54;99886.72;;;11.94;100.00
24788;BME280;12883;52.662;5.196;2024-02-15T01:28:20;99886.72;;;11.94;100.00
24788;BME280;12883;52.662;5.196;2024-02-15T01:30:45;99880.34;;;11.95;100.00
24788;BME280;12883;52.662;5.196;2024-02-15T01:33:12;99879.34;;;11.96;100.00
24788;BME280;12883;52.662;5.196;2024-02-15T01:35:37;99896.66;;;11.98;100.00
24788;BME280;12883;52.662;5.196;2024-02-15T01:38:04;99888.09;;;11.96;100.00
24788;BME280;12883;52.662;5.196;2024-02-15T01:40:30;99885.78;;;11.88;100.00
24788;BME280;12883;52.662;5.196;2024-02-15T01:42:55;99908.19;;;11.92;100.00
24788;BME280;12883;52.662;5.196;2024-02-15T01:45:21;99894.81;;;11.87;100.00
24788;BME280;12883;52.662;5.196;2024-02-15T01:47:48;99894.47;;;11.84;100.00
24788;BME280;12883;52.662;5.196;2024-02-15T01:50:14;99901.38;;;11.73;100.00
24788;BME280;12883;52.662;5.196;2024-02-15T01:52:40;99872.75;;;11.46;100.00
24788;BME280;12883;52.662;5.196;2024-02-15T01:55:06;99904.47;;;11.59;100.00
24788;BME280;12883;52.662;5.196;2024-02-15T01:57:32;99908.81;;;11.53;100.00
24788;BME280;12883;52.662;5.196;2024-02-15T01:59:58;99912.59;;;11.46;100.00
24788;BME280;12883;52.662;5.196;2024-02-15T02:02:25;99914.22;;;11.47;100.00
24788;BME280;12883;52.662;5.196;2024-02-15T02:04:52;99921.59;;;11.45;100.00
24788;BME280;12883;52.662;5.196;2024-02-15T02:07:17;99918.38;;;11.43;100.00
24788;BME280;12883;52.662;5.196;2024-02-15T02:09:42;99916.41;;;11.38;100.00
24788;BME280;12883;52.662;5.196;2024-02-15T02:12:08;99912.84;;;11.44;100.00
24788;BME280;12883;52.662;5.196;2024-02-15T02:14:34;99918.22;;;11.38;100.00
24788;BME280;12883;52.662;5.196;2024-02-15T02:17:15;99884.13;;;11.23;100.00
24788;BME280;12883;52.662;5.196;2024-02-15T02:19:43;99905.16;;;11.36;100.00
24788;BME280;12883;52.662;5.196;2024-02-15T02:22:09;99902.16;;;11.33;100.00
24788;BME280;12883;52.662;5.196;2024-02-15T02:25:02;99905.53;;;11.40;100.00
24788;BME280;12883;52.662;5.196;2024-02-15T02:27:28;99906.13;;;11.42;100.00
24788;BME280;12883;52.662;5.196;2024-02-15T02:29:55;99904.28;;;11.42;100.00
24788;BME280;12883;52.662;5.196;2024-02-15T02:32:21;99901.97;;;11.46;100.00
24788;BME280;12883;52.662;5.196;2024-02-15T02:34:46;99896.44;;;11.47;100.00
24788;BME280;12883;52.662;5.196;2024-02-15T02:37:11;99891.25;;;11.52;100.00
24788;BME280;12883;52.662;5.196;2024-02-15T02:39:38;99886.16;;;11.51;100.00
24788;BME280;12883;52.662;5.196;2024-02-15T02:42:04;99886.75;;;11.53;100.00
24788;BME280;12883;52.662;5.196;2024-02-15T02:44:29;99891.25;;;11.52;100.00
24788;BME280;12883;52.662;5.196;2024-02-15T02:46:55;99880.84;;;11.51;100.00
24788;BME280;12883;52.662;5.196;2024-02-15T02:49:20;99878.41;;;11.49;100.00
24788;BME280;12883;52.662;5.196;2024-02-15T02:51:45;99877.50;;;11.44;100.00
24788;BME280;12883;52.662;5.196;2024-02-15T02:54:11;99883.28;;;11.41;100.00
24788;BME280;12883;52.662;5.196;2024-02-15T02:56:37;99884.59;;;11.32;100.00
24788;BME280;12883;52.662;5.196;2024-02-15T02:59:02;99872.19;;;11.14;100.00
24788;BME280;12883;52.662;5.196;2024-02-15T03:01:28;99846.91;;;11.12;100.00
24788;BME280;12883;52.662;5.196;2024-02-15T03:03:54;99847.00;;;11.05;100.00
24788;BME280;12883;52.662;5.196;2024-02-15T03:06:23;99860.78;;;11.14;100.00
24788;BME280;12883;52.662;5.196;2024-02-15T03:08:50;99889.91;;;11.32;100.00
24788;BME280;12883;52.662;5.196;2024-02-15T03:11:19;99884.16;;;11.35;100.00
24788;BME280;12883;52.662;5.196;2024-02-15T03:13:44;99877.88;;;11.18;100.00
24788;BME280;12883;52.662;5.196;2024-02-15T03:16:10;99891.44;;;11.28;100.00
24788;BME280;12883;52.662;5.196;2024-02-15T03:18:35;99893.41;;;11.32;100.00
24788;BME280;12883;52.662;5.196;2024-02-15T03:21:01;99893.63;;;11.31;100.00
24788;BME280;12883;52.662;5.196;2024-02-15T03:23:26;99899.50;;;11.33;100.00
24788;BME280;12883;52.662;5.196;2024-02-15T03:25:51;99879.63;;;11.24;100.00
24788;BME280;12883;52.662;5.196;2024-02-15T03:28:18;99873.41;;;11.30;100.00
24788;BME280;12883;52.662;5.196;2024-02-15T03:30:46;99883.28;;;11.41;100.00
24788;BME280;12883;52.662;5.196;2024-02-15T03:33:12;99886.84;;;11.46;100.00
24788;BME280;12883;52.662;5.196;2024-02-15T03:35:38;99872.41;;;11.42;100.00
24788;BME280;12883;52.662;5.196;2024-02-15T03:38:04;99830.06;;;11.18;100.00
24788;BME280;12883;52.662;5.196;2024-02-15T03:40:30;99883.16;;;11.47;100.00
24788;BME280;12883;52.662;5.196;2024-02-15T03:42:57;99876.00;;;11.48;100.00
24788;BME280;12883;52.662;5.196;2024-02-15T03:45:23;99868.47;;;11.45;100.00
24788;BME280;12883;52.662;5.196;2024-02-15T03:47:53;99873.34;;;11.48;100.00
24788;BME280;12883;52.662;5.196;2024-02-15T03:50:19;99873.44;;;11.41;100.00
24788;BME280;12883;52.662;5.196;2024-02-15T03:52:46;99873.44;;;11.41;100.00
24788;BME280;12883;52.662;5.196;2024-02-15T03:55:12;99824.03;;;11.11;100.00
24788;BME280;12883;52.662;5.196;2024-02-15T03:57:38;99865.31;;;11.36;100.00
24788;BME280;12883;52.662;5.196;2024-02-15T04:00:06;99867.19;;;11.36;100.00
24788;BME280;12883;52.662;5.196;2024-02-15T04:02:33;99867.53;;;11.39;100.00
24788;BME280;12883;52.662;5.196;2024-02-15T04:05:00;99866.28;;;11.42;100.00
24788;BME280;12883;52.662;5.196;2024-02-15T04:07:26;99858.88;;;11.44;100.00
24788;BME280;12883;52.662;5.196;2024-02-15T04:09:52;99857.84;;;11.45;100.00
24788;BME280;12883;52.662;5.196;2024-02-15T04:12:18;99863.38;;;11.43;100.00
24788;BME280;12883;52.662;5.196;2024-02-15T04:14:44;99841.19;;;11.38;100.00
24788;BME280;12883;52.662;5.196;2024-02-15T04:17:13;99844.00;;;11.43;100.00
24788;BME280;12883;52.662;5.196;2024-02-15T04:19:41;99831.06;;;11.46;100.00
24788;BME280;12883;52.662;5.196;2024-02-15T04:22:06;99831.63;;;11.48;100.00
24788;BME280;12883;52.662;5.196;2024-02-15T04:24:35;99823.88;;;11.47;100.00
24788;BME280;12883;52.662;5.196;2024-02-15T04:27:05;99831.09;;;11.58;100.00
24788;BME280;12883;52.662;5.196;2024-02-15T04:29:34;99790.75;;;11.38;100.00
24788;BME280;12883;52.662;5.196;2024-02-15T04:31:59;99812.69;;;11.56;100.00
24788;BME280;12883;52.662;5.196;2024-02-15T04:34:24;99803.34;;;11.54;100.00
24788;BME280;12883;52.662;5.196;2024-02-15T04:36:50;99806.59;;;11.56;100.00
24788;BME280;12883;52.662;5.196;2024-02-15T04:39:16;99801.28;;;11.56;100.00
24788;BME280;12883;52.662;5.196;2024-02-15T04:41:53;99789.84;;;11.55;100.00
24788;BME280;12883;52.662;5.196;2024-02-15T04:44:19;99761.19;;;11.34;100.00
24788;BME280;12883;52.662;5.196;2024-02-15T04:46:48;99789.03;;;11.55;100.00
24788;BME280;12883;52.662;5.196;2024-02-15T04:49:15;99784.28;;;11.45;100.00
24788;BME280;12883;52.662;5.196;2024-02-15T04:51:40;99793.66;;;11.48;100.00
24788;BME280;12883;52.662;5.196;2024-02-15T04:54:09;99803.09;;;11.44;100.00
24788;BME280;12883;52.662;5.196;2024-02-15T04:56:38;99790.28;;;11.41;100.00
24788;BME280;12883;52.662;5.196;2024-02-15T04:59:05;99793.66;;;11.48;100.00
24788;BME280;12883;52.662;5.196;2024-02-15T05:01:34;99785.22;;;11.51;100.00
24788;BME280;12883;52.662;5.196;2024-02-15T05:03:59;99793.75;;;11.53;100.00
24788;BME280;12883;52.662;5.196;2024-02-15T05:06:25;99786.81;;;11.52;100.00
24788;BME280;12883;52.662;5.196;2024-02-15T05:08:55;99780.63;;;11.58;100.00
24788;BME280;12883;52.662;5.196;2024-02-15T05:11:21;99780.41;;;11.59;100.00
24788;BME280;12883;52.662;5.196;2024-02-15T05:13:47;99784.09;;;11.58;100.00
24788;BME280;12883;52.662;5.196;2024-02-15T05:16:16;99795.31;;;11.60;100.00
24788;BME280;12883;52.662;5.196;2024-02-15T05:18:41;99778.84;;;11.52;100.00
24788;BME280;12883;52.662;5.196;2024-02-15T05:21:07;99777.81;;;11.53;100.00
24788;BME280;12883;52.662;5.196;2024-02-15T05:23:37;99782.56;;;11.51;100.00
24788;BME280;12883;52.662;5.196;2024-02-15T05:26:05;99772.84;;;11.45;100.00
24788;BME280;12883;52.662;5.196;2024-02-15T05:28:31;99769.75;;;11.48;100.00
24788;BME280;12883;52.662;5.196;2024-02-15T05:31:09;99770.88;;;11.40;100.00
24788;BME280;12883;52.662;5.196;2024-02-15T05:33:39;99755.88;;;11.34;100.00
24788;BME280;12883;52.662;5.196;2024-02-15T05:36:12;99722.72;;;11.14;100.00
24788;BME280;12883;52.662;5.196;2024-02-15T05:38:38;99742.72;;;11.28;100.00
24788;BME280;12883;52.662;5.196;2024-02-15T05:41:04;99718.56;;;11.18;100.00
24788;BME280;12883;52.662;5.196;2024-02-15T05:43:30;99756.22;;;11.38;100.00
24788;BME280;12883;52.662;5.196;2024-02-15T05:45:57;99744.66;;;11.44;100.00
24788;BME280;12883;52.662;5.196;2024-02-15T05:48:24;99730.81;;;11.42;100.00
24788;BME280;12883;52.662;5.196;2024-02-15T05:50:49;99720.41;;;11.40;100.00
24788;BME280;12883;52.662;5.196;2024-02-15T05:53:15;99733.34;;;11.37;100.00
24788;BME280;12883;52.662;5.196;2024-02-15T05:55:40;99714.53;;;11.38;100.00
24788;BME280;12883;52.662;5.196;2024-02-15T05:58:09;99716.03;;;11.34;100.00
24788;BME280;12883;52.662;5.196;2024-02-15T06:00:36;99689.81;;;11.26;100.00
24788;BME280;12883;52.662;5.196;2024-02-15T06:03:04;99716.94;;;11.40;100.00
24788;BME280;12883;52.662;5.196;2024-02-15T06:05:31;99731.88;;;11.41;100.00
24788;BME280;12883;52.662;5.196;2024-02-15T06:07:57;99738.19;;;11.40;100.00
24788;BME280;12883;52.662;5.196;2024-02-15T06:10:24;99750.91;;;11.38;100.00
24788;BME280;12883;52.662;5.196;2024-02-15T06:12:50;99741.88;;;11.39;100.00
24788;BME280;12883;52.662;5.196;2024-02-15T06:15:16;99736.56;;;11.39;100.00
24788;BME280;12883;52.662;5.196;2024-02-15T06:17:42;99734.16;;;11.37;100.00
24788;BME280;12883;52.662;5.196;2024-02-15T06:20:14;99687.38;;;11.02;100.00
24788;BME280;12883;52.662;5.196;2024-02-15T06:22:40;99720.88;;;11.26;100.00
24788;BME280;12883;52.662;5.196;2024-02-15T06:25:06;99717.28;;;11.20;100.00
24788;BME280;12883;52.662;5.196;2024-02-15T06:27:32;99737.41;;;11.28;100.00
24788;BME280;12883;52.662;5.196;2024-02-15T06:29:58;99736.00;;;11.25;100.00
24788;BME280;12883;52.662;5.196;2024-02-15T06:32:42;99738.53;;;11.20;100.00
24788;BME280;12883;52.662;5.196;2024-02-15T06:35:27;99723.06;;;11.29;100.00
24788;BME280;12883;52.662;5.196;2024-02-15T06:38:11;99715.22;;;11.34;100.00
24788;BME280;12883;52.662;5.196;2024-02-15T06:40:54;99714.19;;;11.35;100.00
24788;BME280;12883;52.662;5.196;2024-02-15T06:43:20;99702.97;;;11.33;100.00
24788;BME280;12883;52.662;5.196;2024-02-15T06:45:46;99703.78;;;11.33;100.00
24788;BME280;12883;52.662;5.196;2024-02-15T06:48:12;99694.56;;;11.36;100.00
24788;BME280;12883;52.662;5.196;2024-02-15T06:50:38;99692.13;;;11.34;100.00
24788;BME280;12883;52.662;5.196;2024-02-15T06:53:04;99694.00;;;11.34;100.00
24788;BME280;12883;52.662;5.196;2024-02-15T06:55:30;99686.03;;;11.34;100.00
24788;BME280;12883;52.662;5.196;2024-02-15T06:57:55;99682.88;;;11.37;100.00
24788;BME280;12883;52.662;5.196;2024-02-15T07:00:21;99683.94;;;11.36;100.00
24788;BME280;12883;52.662;5.196;2024-02-15T07:02:46;99661.06;;;11.35;100.00
24788;BME280;12883;52.662;5.196;2024-02-15T07:05:13;99675.50;;;11.39;100.00
24788;BME280;12883;52.662;5.196;2024-02-15T07:07:39;99661.06;;;11.35;100.00
24788;BME280;12883;52.662;5.196;2024-02-15T07:10:05;99653.19;;;11.40;100.00
24788;BME280;12883;52.662;5.196;2024-02-15T07:12:31;99633.13;;;11.21;100.00
24788;BME280;12883;52.662;5.196;2024-02-15T07:14:57;99622.88;;;11.13;100.00
24788;BME280;12883;52.662;5.196;2024-02-15T07:17:23;99672.38;;;11.42;100.00
24788;BME280;12883;52.662;5.196;2024-02-15T07:19:48;99676.88;;;11.41;100.00
24788;BME280;12883;52.662;5.196;2024-02-15T07:22:17;99683.00;;;11.42;100.00
24788;BME280;12883;52.662;5.196;2024-02-15T07:24:43;99671.56;;;11.41;100.00
24788;BME280;12883;52.662;5.196;2024-02-15T07:27:08;99637.72;;;11.37;100.00
24788;BME280;12883;52.662;5.196;2024-02-15T07:29:35;99591.44;;;11.33;100.00
24788;BME280;12883;52.662;5.196;2024-02-15T07:32:05;99628.13;;;11.47;100.00
24788;BME280;12883;52.662;5.196;2024-02-15T07:34:31;99641.75;;;11.51;100.00
24788;BME280;12883;52.662;5.196;2024-02-15T07:36:58;99645.56;;;11.55;100.00
24788;BME280;12883;52.662;5.196;2024-02-15T07:39:24;99641.28;;;11.54;100.00
24788;BME280;12883;52.662;5.196;2024-02-15T07:41:51;99634.13;;;11.54;100.00
24788;BME280;12883;52.662;5.196;2024-02-15T07:44:16;99633.44;;;11.59;100.00
24788;BME280;12883;52.662;5.196;2024-02-15T07:46:43;99640.81;;;11.57;100.00
24788;BME280;12883;52.662;5.196;2024-02-15T07:49:09;99661.06;;;11.58;100.00
24788;BME280;12883;52.662;5.196;2024-02-15T07:51:34;99638.06;;;11.40;100.00
24788;BME280;12883;52.662;5.196;2024-02-15T07:53:59;99649.72;;;11.51;100.00
24788;BME280;12883;52.662;5.196;2024-02-15T07:56:26;99650.88;;;11.55;100.00
24788;BME280;12883;52.662;5.196;2024-02-15T07:58:52;99651.81;;;11.60;100.00
24788;BME280;12883;52.662;5.196;2024-02-15T08:01:18;99640.81;;;11.68;100.00
24788;BME280;12883;52.662;5.196;2024-02-15T08:03:46;99641.88;;;11.67;100.00
24788;BME280;12883;52.662;5.196;2024-02-15T08:06:12;99655.50;;;11.71;100.00
24788;BME280;12883;52.662;5.196;2024-02-15T08:08:42;99645.91;;;11.70;100.00
24788;BME280;12883;52.662;5.196;2024-02-15T08:11:11;99644.88;;;11.71;100.00
24788;BME280;12883;52.662;5.196;2024-02-15T08:13:45;99643.34;;;11.75;100.00
24788;BME280;12883;52.662;5.196;2024-02-15T08:16:13;99640.34;;;11.71;100.00
24788;BME280;12883;52.662;5.196;2024-02-15T08:18:41;99637.22;;;11.74;100.00
24788;BME280;12883;52.662;5.196;2024-02-15T08:21:09;99617.06;;;11.62;100.00
24788;BME280;12883;52.662;5.196;2024-02-15T08:23:34;99638.28;;;11.73;100.00
24788;BME280;12883;52.662;5.196;2024-02-15T08:25:59;99627.78;;;11.67;100.00
24788;BME280;12883;52.662;5.196;2024-02-15T08:28:25;99627.78;;;11.67;100.00
24788;BME280;12883;52.662;5.196;2024-02-15T08:30:57;99622.00;;;11.70;100.00
24788;BME280;12883;52.662;5.196;2024-02-15T08:33:23;99625.22;;;11.72;100.00
24788;BME280;12883;52.662;5.196;2024-02-15T08:35:49;99599.38;;;11.56;100.00
24788;BME280;12883;52.662;5.196;2024-02-15T08:38:14;99618.97;;;11.78;100.00
24788;BME280;12883;52.662;5.196;2024-02-15T08:40:39;99620.00;;;11.77;100.00
24788;BME280;12883;52.662;5.196;2024-02-15T08:43:05;99622.19;;;11.80;100.00
24788;BME280;12883;52.662;5.196;2024-02-15T08:45:31;99619.44;;;11.75;100.00
24788;BME280;12883;52.662;5.196;2024-02-15T08:47:56;99625.22;;;11.72;100.00
24788;BME280;12883;52.662;5.196;2024-02-15T08:50:21;99574.34;;;11.40;100.00
24788;BME280;12883;52.662;5.196;2024-02-15T08:52:49;99587.03;;;11.50;100.00
24788;BME280;12883;52.662;5.196;2024-02-15T08:55:15;99626.84;;;11.73;100.00
24788;BME280;12883;52.662;5.196;2024-02-15T08:57:42;99622.78;;;11.70;100.00
24788;BME280;12883;52.662;5.196;2024-02-15T09:00:10;99617.97;;;11.67;100.00
24788;BME280;12883;52.662;5.196;2024-02-15T09:02:45;99621.41;;;11.68;100.00
24788;BME280;12883;52.662;5.196;2024-02-15T09:05:10;99617.72;;;11.69;100.00
24788;BME280;12883;52.662;5.196;2024-02-15T09:07:40;99620.38;;;11.69;100.00
24788;BME280;12883;52.662;5.196;2024-02-15T09:10:10;99593.94;;;11.51;100.00
24788;BME280;12883;52.662;5.196;2024-02-15T09:12:37;99623.03;;;11.69;100.00
24788;BME280;12883;52.662;5.196;2024-02-15T09:15:08;99622.22;;;11.68;100.00
24788;BME280;12883;52.662;5.196;2024-02-15T09:17:34;99622.00;;;11.70;100.00
24788;BME280;12883;52.662;5.196;2024-02-15T09:20:14;99618.75;;;11.68;100.00
24788;BME280;12883;52.662;5.196;2024-02-15T09:22:51;99624.31;;;11.66;100.00
24788;BME280;12883;52.662;5.196;2024-02-15T09:25:20;99610.22;;;11.66;100.00
24788;BME280;12883;52.662;5.196;2024-02-15T09:27:46;99602.13;;;11.61;100.00
24788;BME280;12883;52.662;5.196;2024-02-15T09:30:12;99610.00;;;11.67;100.00
24788;BME280;12883;52.662;5.196;2024-02-15T09:32:38;99571.53;;;11.47;100.00
24788;BME280;12883;52.662;5.196;2024-02-15T09:35:05;99608.00;;;11.74;100.00
24788;BME280;12883;52.662;5.196;2024-02-15T09:37:37;99607.44;;;11.72;100.00
24788;BME280;12883;52.662;5.196;2024-02-15T09:40:08;99582.97;;;11.59;100.00
24788;BME280;12883;52.662;5.196;2024-02-15T09:42:35;99608.34;;;11.78;100.00
24788;BME280;12883;52.662;5.196;2024-02-15T09:45:01;99597.03;;;11.71;100.00
24788;BME280;12883;52.662;5.196;2024-02-15T09:47:34;99587.19;;;11.83;100.00
24788;BME280;12883;52.662;5.196;2024-02-15T09:50:00;99589.34;;;11.86;100.00
24788;BME280;12883;52.662;5.196;2024-02-15T09:52:25;99576.97;;;11.91;100.00
24788;BME280;12883;52.662;5.196;2024-02-15T09:54:53;99580.44;;;11.92;100.00
24788;BME280;12883;52.662;5.196;2024-02-15T09:57:20;99573.59;;;11.96;100.00
24788;BME280;12883;52.662;5.196;2024-02-15T09:59:45;99560.53;;;11.94;100.00
24788;BME280;12883;52.662;5.196;2024-02-15T10:02:10;99560.53;;;11.94;100.00
24788;BME280;12883;52.662;5.196;2024-02-15T10:04:39;99566.19;;;11.98;100.00
24788;BME280;12883;52.662;5.196;2024-02-15T10:07:05;99571.03;;;12.01;100.00
24788;BME280;12883;52.662;5.196;2024-02-15T10:09:34;99569.50;;;12.05;100.00
24788;BME280;12883;52.662;5.196;2024-02-15T10:12:02;99563.03;;;12.01;100.00
24788;BME280;12883;52.662;5.196;2024-02-15T10:14:29;99576.00;;;11.97;100.00
24788;BME280;12883;52.662;5.196;2024-02-15T10:16:56;99571.84;;;12.01;100.00
24788;BME280;12883;52.662;5.196;2024-02-15T10:19:22;99581.31;;;11.97;100.00
24788;BME280;12883;52.662;5.196;2024-02-15T10:21:54;99567.94;;;11.92;100.00
24788;BME280;12883;52.662;5.196;2024-02-15T10:24:23;99571.22;;;11.83;100.00
24788;BME280;12883;52.662;5.196;2024-02-15T10:27:00;99566.66;;;11.95;100.00
24788;BME280;12883;52.662;5.196;2024-02-15T10:29:26;99571.75;;;11.96;100.00
24788;BME280;12883;52.662;5.196;2024-02-15T10:31:56;99569.09;;;11.96;100.00
24788;BME280;12883;52.662;5.196;2024-02-15T10:34:22;99565.28;;;11.92;100.00
24788;BME280;12883;52.662;5.196;2024-02-15T10:36:48;99572.31;;;11.98;100.00
24788;BME280;12883;52.662;5.196;2024-02-15T10:39:18;99566.84;;;12.05;100.00
24788;BME280;12883;52.662;5.196;2024-02-15T10:41:49;99555.13;;;11.89;100.00
24788;BME280;12883;52.662;5.196;2024-02-15T10:44:22;99571.69;;;12.08;100.00
24788;BME280;12883;52.662;5.196;2024-02-15T10:46:51;99580.47;;;12.08;100.00
24788;BME280;12883;52.662;5.196;2024-02-15T10:51:44;99567.97;;;12.09;100.00
24788;BME280;12883;52.662;5.196;2024-02-15T10:54:15;99570.06;;;12.07;100.00
24788;BME280;12883;52.662;5.196;2024-02-15T10:56:50;99567.97;;;12.09;100.00
24788;BME280;12883;52.662;5.196;2024-02-15T10:59:18;99574.28;;;12.03;100.00
24788;BME280;12883;52.662;5.196;2024-02-15T11:01:49;99573.13;;;11.99;100.00
24788;BME280;12883;52.662;5.196;2024-02-15T11:04:20;99569.41;;;12.00;100.00
24788;BME280;12883;52.662;5.196;2024-02-15T11:06:47;99576.81;;;11.98;100.00
24788;BME280;12883;52.662;5.196;2024-02-15T11:09:15;99570.94;;;11.96;100.00
24788;BME280;12883;52.662;5.196;2024-02-15T11:11:41;99550.09;;;11.76;100.00
24788;BME280;12883;52.662;5.196;2024-02-15T11:16:54;99565.63;;;11.96;100.00
24788;BME280;12883;52.662;5.196;2024-02-15T11:19:40;99570.22;;;12.00;100.00
24788;BME280;12883;52.662;5.196;2024-02-15T11:22:11;99576.00;;;11.97;100.00
24788;BME280;12883;52.662;5.196;2024-02-15T11:24:51;99568.84;;;11.98;100.00
24788;BME280;12883;52.662;5.196;2024-02-15T11:27:30;99569.50;;;12.05;100.00
24788;BME280;12883;52.662;5.196;2024-02-15T11:30:00;99566.75;;;12.00;100.00
24788;BME280;12883;52.662;5.196;2024-02-15T11:35:14;99553.56;;;12.05;100.00
24788;BME280;12883;52.662;5.196;2024-02-15T11:40:23;99561.63;;;12.10;100.00
24788;BME280;12883;52.662;5.196;2024-02-15T11:42:53;99560.31;;;12.12;100.00
24788;BME280;12883;52.662;5.196;2024-02-15T11:45:19;99552.84;;;12.09;100.00
24788;BME280;12883;52.662;5.196;2024-02-15T11:47:47;99505.13;;;11.86;100.00
24788;BME280;12883;52.662;5.196;2024-02-15T11:50:15;99539.38;;;12.16;100.00
24788;BME280;12883;52.662;5.196;2024-02-15T11:52:41;99523.50;;;12.21;100.00
24788;BME280;12883;52.662;5.196;2024-02-15T11:55:08;99519.56;;;12.23;100.00
24788;BME280;12883;52.662;5.196;2024-02-15T11:57:38;99532.69;;;12.30;100.00
24788;BME280;12883;52.662;5.196;2024-02-15T12:00:23;99527.38;;;12.30;100.00
24788;BME280;12883;52.662;5.196;2024-02-15T12:03:08;99508.69;;;12.25;100.00
24788;BME280;12883;52.662;5.196;2024-02-15T12:05:54;99508.38;;;12.38;100.00
24788;BME280;12883;52.662;5.196;2024-02-15T12:08:39;99500.72;;;12.41;100.00
24788;BME280;12883;52.662;5.196;2024-02-15T12:11:23;99509.97;;;12.39;100.00
24788;BME280;12883;52.662;5.196;2024-02-15T12:14:12;99493.53;;;12.42;100.00
24788;BME280;12883;52.662;5.196;2024-02-15T12:17:14;99493.53;;;12.42;100.00
24788;BME280;12883;52.662;5.196;2024-02-15T12:20:02;99490.94;;;12.47;100.00
24788;BME280;12883;52.662;5.196;2024-02-15T12:22:43;99496.75;;;12.44;100.00
24788;BME280;12883;52.662;5.196;2024-02-15T12:25:14;99488.53;;;12.45;100.00
24788;BME280;12883;52.662;5.196;2024-02-15T12:27:40;99471.69;;;12.40;100.00
24788;BME280;12883;52.662;5.196;2024-02-15T12:30:06;99479.25;;;12.48;100.00
24788;BME280;12883;52.662;5.196;2024-02-15T12:32:34;99486.09;;;12.44;100.00
24788;BME280;12883;52.662;5.196;2024-02-15T12:35:15;99486.69;;;12.46;100.00
24788;BME280;12883;52.662;5.196;2024-02-15T12:38:09;99476.72;;;12.58;100.00
24788;BME280;12883;52.662;5.196;2024-02-15T12:40:35;99455.31;;;12.48;100.00
24788;BME280;12883;52.662;5.196;2024-02-15T12:43:02;99464.91;;;12.49;100.00
24788;BME280;12883;52.662;5.196;2024-02-15T12:45:31;99482.38;;;12.61;100.00
24788;BME280;12883;52.662;5.196;2024-02-15T12:47:57;99494.88;;;12.61;100.00
24788;BME280;12883;52.662;5.196;2024-02-15T12:50:27;99471.34;;;12.53;100.00
24788;BME280;12883;52.662;5.196;2024-02-15T12:52:54;99476.72;;;12.58;100.00
24788;BME280;12883;52.662;5.196;2024-02-15T12:55:22;99484.16;;;12.56;100.00
24788;BME280;12883;52.662;5.196;2024-02-15T12:57:53;99482.13;;;12.63;100.00
24788;BME280;12883;52.662;5.196;2024-02-15T13:00:26;99470.50;;;12.69;100.00
24788;BME280;12883;52.662;5.196;2024-02-15T13:02:57;99471.06;;;12.71;100.00
24788;BME280;12883;52.662;5.196;2024-02-15T13:05:25;99471.06;;;12.71;100.00